Bombay, New York
Current Conditions -  °F | °C
As of 6:53 PM on Sunday 25 Jan 2015 (Local Time) from KMSS Reporting Station
Clear Clear  
Wind Chill: -8°   Ceiling: Unl
Heat Index:   Visibility: 10mi
Dew Point: -6°   Wind: 8mph
Humidity: 61%   Direction: 280°W
Pressure: 30.08"   Gusts: NA
Location:  44.94°N, 74.57°W
Report Text: KMSS 252353Z AUTO 28007KT 10SM CLR M15/M21 A3008 RMK AO2 SLP197 T11501211 11128 21150 53035
Loading
Personal Weather Stations






























Interactive Weather Map New forecast layout! Learn more

10-Day Weather Forecast

Advertisements
Track Severe Weather on mobile